createdAt,value
2023-03-07T04:47:42.751Z,666.20
2023-03-07T04:50:10.861Z,662.85
2023-03-07T04:52:37.518Z,667.15
2023-03-07T04:55:05.585Z,665.03
2023-03-07T04:57:32.246Z,673.47
2023-03-07T04:59:58.895Z,668.42
2023-03-07T05:02:25.555Z,668.75
2023-03-07T05:04:52.271Z,666.03
2023-03-07T05:07:18.938Z,661.80
2023-03-07T05:09:45.873Z,659.38
2023-03-07T05:12:12.556Z,656.30
2023-03-07T05:14:39.247Z,657.90
2023-03-07T05:17:05.950Z,656.25
2023-03-07T05:19:32.607Z,656.23
2023-03-07T05:21:59.342Z,658.17
2023-03-07T05:24:26.161Z,654.63
2023-03-07T05:26:52.820Z,653.10
2023-03-07T05:29:19.579Z,654.53
2023-03-07T05:31:46.243Z,658.28
2023-03-07T05:34:13.166Z,655.42
2023-03-07T05:36:39.875Z,655.60
2023-03-07T05:39:06.551Z,650.40
2023-03-07T05:41:36.743Z,655.00
2023-03-07T05:44:03.474Z,656.72
2023-03-07T05:46:30.223Z,653.45
2023-03-07T05:48:57.013Z,658.00
2023-03-07T05:51:23.654Z,655.85
2023-03-07T05:53:50.338Z,663.13
2023-03-07T05:56:17.095Z,657.67
2023-03-07T05:58:43.765Z,659.40
2023-03-07T06:01:10.490Z,659.53
2023-03-07T06:03:39.036Z,660.10
2023-03-07T06:06:06.075Z,658.50
2023-03-07T06:08:32.795Z,665.42
2023-03-07T06:10:59.497Z,660.92
2023-03-07T06:13:26.606Z,657.30
2023-03-07T06:15:55.111Z,657.92
2023-03-07T06:18:23.610Z,662.60
2023-03-07T06:21:02.051Z,657.90
2023-03-07T06:23:31.548Z,659.27
2023-03-07T06:25:58.739Z,660.60
2023-03-07T06:28:42.663Z,659.80
2023-03-07T06:31:11.924Z,660.42
2023-03-07T06:33:38.795Z,656.15
2023-03-07T06:36:09.631Z,659.63
2023-03-07T06:38:36.664Z,658.30
2023-03-07T06:41:04.114Z,661.13
2023-03-07T06:43:30.797Z,659.25
2023-03-07T06:45:57.504Z,667.80
2023-03-07T06:48:25.021Z,660.97
2023-03-07T06:50:51.688Z,663.78
2023-03-07T06:53:18.644Z,660.73
2023-03-07T06:55:50.121Z,662.97
2023-03-07T06:58:17.478Z,669.25
2023-03-07T07:00:44.818Z,673.75
2023-03-07T07:03:15.171Z,678.50
2023-03-07T07:05:41.993Z,675.00
2023-03-07T07:08:09.276Z,678.65
2023-03-07T07:10:36.774Z,676.40
2023-03-07T07:13:04.595Z,681.67
2023-03-07T07:15:31.817Z,677.95
2023-03-07T07:17:58.538Z,677.47
2023-03-07T07:20:25.480Z,678.65
2023-03-07T07:22:52.206Z,683.05
2023-03-07T07:25:19.209Z,681.92
2023-03-07T07:27:46.005Z,689.70
2023-03-07T07:30:13.826Z,693.70
2023-03-07T07:32:40.703Z,697.47
2023-03-07T07:35:08.115Z,698.15
2023-03-07T07:37:34.827Z,703.25
2023-03-07T07:40:01.626Z,700.17
2023-03-07T07:42:29.356Z,705.35
2023-03-07T07:44:57.391Z,703.08
2023-03-07T07:47:24.049Z,704.10
2023-03-07T07:49:50.780Z,707.78
2023-03-07T07:52:18.169Z,695.03
2023-03-07T07:54:44.874Z,694.10
2023-03-07T07:57:11.558Z,694.90
2023-03-07T07:59:38.297Z,691.00
2023-03-07T08:02:05.127Z,700.07
2023-03-07T08:04:32.092Z,697.08
2023-03-07T08:06:58.749Z,687.83
2023-03-07T08:09:25.617Z,687.70
2023-03-07T08:11:52.281Z,687.92
2023-03-07T08:14:19.101Z,691.25
2023-03-07T08:16:45.822Z,694.88
2023-03-07T08:19:12.584Z,699.03
2023-03-07T08:21:40.007Z,698.15
2023-03-07T08:24:06.892Z,695.17
2023-03-07T08:26:33.573Z,697.90
2023-03-07T08:29:00.298Z,696.80
2023-03-07T08:31:27.292Z,697.20
2023-03-07T08:33:54.055Z,697.63
2023-03-07T08:36:21.025Z,697.35
2023-03-07T08:38:51.423Z,698.65
2023-03-07T08:41:19.431Z,692.92
2023-03-07T08:43:46.186Z,694.90
2023-03-07T08:46:13.233Z,697.78
2023-03-07T08:48:40.415Z,701.40
2023-03-07T08:51:10.323Z,706.92
2023-03-07T08:53:37.805Z,692.85
2023-03-07T08:56:09.366Z,700.95
2023-03-07T08:58:36.699Z,695.08
2023-03-07T09:01:05.128Z,699.22
2023-03-07T09:03:32.193Z,707.40
2023-03-07T09:05:59.179Z,709.03
2023-03-07T09:08:25.832Z,717.80
2023-03-07T09:10:53.008Z,724.13
2023-03-07T09:13:19.910Z,729.90
2023-03-07T09:15:46.746Z,722.90
2023-03-07T09:18:13.622Z,721.33
2023-03-07T09:20:40.965Z,715.70
2023-03-07T09:23:08.388Z,722.20
2023-03-07T09:25:36.324Z,720.75
2023-03-07T09:28:04.217Z,728.10
2023-03-07T09:30:31.179Z,746.30
2023-03-07T09:32:58.291Z,757.67
2023-03-07T09:35:25.857Z,771.13
2023-03-07T09:37:52.568Z,797.55
2023-03-07T09:40:23.565Z,822.72
2023-03-07T09:42:57.161Z,823.47
2023-03-07T09:45:44.212Z,814.78
2023-03-07T09:48:22.824Z,809.90
2023-03-07T09:51:11.885Z,814.40
2023-03-07T09:53:56.877Z,815.58
2023-03-07T09:56:58.974Z,777.47
2023-03-07T09:59:35.932Z,784.83
2023-03-07T10:02:26.609Z,809.75
2023-03-07T10:05:02.379Z,822.20
2023-03-07T10:07:29.550Z,821.67
2023-03-07T10:10:07.347Z,826.67
2023-03-07T10:12:37.044Z,837.30
2023-03-07T10:15:15.677Z,849.90
2023-03-07T10:18:14.485Z,885.28
2023-03-07T10:20:57.546Z,906.38
2023-03-07T10:23:31.051Z,914.65
2023-03-07T10:26:06.771Z,928.80
2023-03-07T10:28:35.242Z,934.97
2023-03-07T10:31:20.501Z,949.97
2023-03-07T10:33:49.078Z,960.88
2023-03-07T10:36:43.391Z,986.13
2023-03-07T10:39:49.575Z,1007.03
2023-03-07T10:42:19.227Z,1033.60
2023-03-07T10:44:48.883Z,1035.88
2023-03-07T10:47:22.243Z,1063.28
2023-03-07T10:49:51.308Z,1075.10
2023-03-07T10:52:39.718Z,1087.47
2023-03-07T10:55:37.820Z,1106.28
2023-03-07T10:58:20.382Z,1102.45
2023-03-07T11:01:14.219Z,1114.45
2023-03-07T11:03:52.701Z,1098.78
2023-03-07T11:06:52.353Z,1094.70
2023-03-07T11:09:45.866Z,1086.50
2023-03-07T11:12:18.899Z,1089.57
2023-03-07T11:14:51.215Z,1073.50
2023-03-07T11:17:23.834Z,1075.85
2023-03-07T11:19:57.989Z,1070.82
2023-03-07T11:22:28.545Z,1062.65
2023-03-07T11:25:27.371Z,1053.18
2023-03-07T11:28:00.167Z,1066.43
2023-03-07T11:30:50.901Z,1062.90
2023-03-07T11:33:28.589Z,1065.70
2023-03-07T11:36:13.168Z,1055.85
2023-03-07T11:38:48.415Z,1056.13
2023-03-07T11:41:35.862Z,1047.90
2023-03-07T11:44:08.269Z,1048.00
2023-03-07T11:47:03.084Z,1039.35
2023-03-07T11:49:56.863Z,1039.22
2023-03-07T11:52:40.978Z,1033.25
2023-03-07T11:55:19.586Z,1015.30
2023-03-07T11:57:51.960Z,994.92
2023-03-07T12:00:36.540Z,988.97
2023-03-07T12:03:23.381Z,984.08
2023-03-07T12:05:49.952Z,1000.50
2023-03-07T12:08:19.573Z,996.53
2023-03-07T12:11:09.555Z,986.55
2023-03-07T12:13:54.685Z,995.63
2023-03-07T12:16:37.771Z,1007.75
2023-03-07T12:19:43.044Z,1017.47
2023-03-07T12:22:29.869Z,1006.40
2023-03-07T12:25:33.392Z,1008.40
2023-03-07T12:28:22.325Z,1002.22
2023-03-07T12:31:06.589Z,1011.75
2023-03-07T12:33:46.838Z,1011.27
2023-03-07T12:36:31.218Z,997.15
2023-03-07T12:39:05.899Z,995.60
2023-03-07T12:41:41.117Z,981.65
2023-03-07T12:44:29.275Z,983.42
2023-03-07T12:47:23.329Z,976.60
2023-03-07T12:50:05.476Z,975.47
2023-03-07T12:52:41.723Z,973.50
2023-03-07T12:55:31.012Z,968.88
2023-03-07T12:58:25.602Z,966.85
2023-03-07T13:01:01.298Z,932.13
2023-03-07T13:03:44.364Z,935.13
2023-03-07T13:06:18.489Z,916.65
2023-03-07T13:08:50.985Z,904.13
2023-03-07T13:11:23.753Z,903.13
2023-03-07T13:13:52.311Z,919.72
2023-03-07T13:16:42.507Z,917.75
2023-03-07T13:19:30.774Z,922.55
2023-03-07T13:21:58.053Z,934.67
2023-03-07T13:24:35.090Z,929.67
2023-03-07T13:27:04.653Z,938.92
2023-03-07T13:30:04.702Z,953.13
2023-03-07T13:32:52.540Z,952.08
2023-03-07T13:35:28.869Z,958.97
2023-03-07T13:38:13.641Z,956.25
2023-03-07T13:40:46.547Z,945.53
2023-03-07T13:43:19.393Z,933.55
2023-03-07T13:45:47.950Z,927.73
2023-03-07T13:48:26.569Z,918.07
2023-03-07T13:50:54.021Z,918.73
2023-03-07T13:53:35.752Z,906.15
2023-03-07T13:56:25.104Z,919.05
2023-03-07T13:59:10.076Z,921.77
2023-03-07T14:01:40.599Z,915.47
2023-03-07T14:04:39.547Z,917.88
2023-03-07T14:07:19.687Z,914.08
2023-03-07T14:09:58.125Z,921.22
2023-03-07T14:13:05.258Z,919.30
2023-03-07T14:15:51.396Z,929.75
2023-03-07T14:18:29.696Z,912.83
2023-03-07T14:21:26.117Z,920.95
2023-03-07T14:24:17.322Z,905.03
2023-03-07T14:26:48.773Z,910.22
2023-03-07T14:29:18.832Z,894.72
2023-03-07T14:31:46.853Z,901.40
2023-03-07T14:34:36.714Z,883.13
2023-03-07T14:37:07.454Z,869.38
2023-03-07T14:39:47.766Z,873.42
2023-03-07T14:42:39.732Z,865.85
2023-03-07T14:45:12.259Z,857.95
2023-03-07T14:47:58.055Z,860.67
2023-03-07T14:50:29.682Z,875.35
2023-03-07T14:53:03.153Z,865.70
2023-03-07T14:55:39.150Z,869.90
2023-03-07T14:58:06.197Z,864.88
2023-03-07T15:00:34.589Z,867.97
2023-03-07T15:03:09.869Z,868.05
2023-03-07T15:05:53.264Z,852.85
2023-03-07T15:08:22.568Z,849.92
2023-03-07T15:10:58.557Z,834.85
2023-03-07T15:13:31.117Z,846.63
2023-03-07T15:16:03.593Z,856.63
2023-03-07T15:18:38.122Z,849.47
2023-03-07T15:21:06.065Z,851.35
2023-03-07T15:23:32.816Z,845.53
2023-03-07T15:26:05.261Z,842.65
2023-03-07T15:28:41.088Z,844.63
2023-03-07T15:31:11.429Z,838.17
2023-03-07T15:33:38.192Z,832.40
2023-03-07T15:36:13.793Z,829.65
2023-03-07T15:38:46.377Z,840.60
2023-03-07T15:41:33.676Z,832.08
2023-03-07T15:44:10.538Z,821.95
2023-03-07T15:46:44.251Z,824.50
2023-03-07T15:49:41.178Z,819.10
2023-03-07T15:52:19.965Z,808.50
2023-03-07T15:54:51.603Z,791.92
2023-03-07T15:57:31.518Z,767.72
2023-03-07T16:00:02.482Z,758.30
2023-03-07T16:02:31.970Z,760.80
2023-03-07T16:05:24.725Z,761.35
2023-03-07T16:07:53.565Z,747.67
2023-03-07T16:10:21.415Z,750.90
2023-03-07T16:12:49.477Z,749.17
2023-03-07T16:15:18.101Z,750.22
2023-03-07T16:17:45.908Z,754.08
2023-03-07T16:20:17.514Z,745.65
2023-03-07T16:22:44.568Z,749.13
2023-03-07T16:25:11.866Z,750.33
2023-03-07T16:27:38.885Z,748.00
2023-03-07T16:30:17.184Z,744.35
2023-03-07T16:32:44.101Z,751.88
2023-03-07T16:35:20.131Z,757.00
2023-03-07T16:37:47.498Z,756.58
2023-03-07T16:40:15.958Z,756.58
2023-03-07T16:42:47.599Z,755.40
2023-03-07T16:45:20.083Z,753.78
2023-03-07T16:47:47.719Z,748.97
2023-03-07T16:50:19.986Z,740.35
2023-03-07T16:52:46.622Z,744.33
2023-03-07T16:55:15.423Z,743.80
2023-03-07T16:57:45.759Z,735.95
2023-03-07T17:00:24.143Z,737.85
2023-03-07T17:02:52.861Z,735.75
2023-03-07T17:05:25.330Z,732.33
2023-03-07T17:07:53.294Z,729.20
2023-03-07T17:10:20.531Z,726.92
2023-03-07T17:12:49.292Z,728.83
2023-03-07T17:15:19.408Z,727.83
2023-03-07T17:17:46.311Z,718.13
2023-03-07T17:20:16.006Z,709.40
2023-03-07T17:22:42.984Z,715.85
2023-03-07T17:25:10.564Z,701.50
2023-03-07T17:27:42.200Z,713.80
2023-03-07T17:30:14.707Z,717.40
2023-03-07T17:32:41.707Z,711.72
2023-03-07T17:35:09.710Z,709.00
2023-03-07T17:37:36.891Z,703.80
2023-03-07T17:40:10.000Z,706.10
2023-03-07T17:42:41.858Z,710.75
2023-03-07T17:45:10.559Z,702.77
2023-03-07T17:47:37.306Z,708.05
2023-03-07T17:50:05.401Z,708.63
2023-03-07T17:52:32.939Z,715.22
2023-03-07T17:54:59.911Z,701.00
2023-03-07T17:57:27.457Z,698.60
2023-03-07T17:59:54.973Z,705.33
2023-03-07T18:02:21.637Z,706.55
2023-03-07T18:04:48.726Z,701.60
2023-03-07T18:07:18.193Z,702.10
2023-03-07T18:09:44.995Z,708.72
2023-03-07T18:12:11.619Z,712.42
2023-03-07T18:14:38.299Z,702.10
2023-03-07T18:17:05.021Z,708.70
2023-03-07T18:19:32.365Z,709.03
2023-03-07T18:21:59.008Z,710.78
2023-03-07T18:24:31.534Z,702.83
2023-03-07T18:26:59.436Z,706.83
2023-03-07T18:29:27.480Z,707.40
2023-03-07T18:31:54.121Z,705.35
2023-03-07T18:34:21.215Z,706.72
2023-03-07T18:36:51.570Z,704.10
2023-03-07T18:39:18.902Z,698.80
2023-03-07T18:41:45.792Z,701.13
2023-03-07T18:44:12.398Z,701.17
2023-03-07T18:46:39.169Z,697.85
2023-03-07T18:49:06.016Z,705.22
2023-03-07T18:51:32.693Z,707.25
2023-03-07T18:54:01.306Z,706.58
2023-03-07T18:56:28.736Z,711.35
2023-03-07T18:58:58.737Z,702.10
2023-03-07T19:01:31.081Z,708.65
2023-03-07T19:04:00.723Z,707.80
2023-03-07T19:06:36.246Z,702.83
2023-03-07T19:09:03.773Z,707.05
2023-03-07T19:11:31.073Z,699.67
2023-03-07T19:13:58.160Z,700.60
2023-03-07T19:16:26.935Z,706.70
2023-03-07T19:18:54.694Z,702.03
2023-03-07T19:21:26.582Z,709.22
2023-03-07T19:23:54.549Z,710.65
2023-03-07T19:26:22.698Z,704.27
2023-03-07T19:28:52.475Z,704.35
2023-03-07T19:31:23.501Z,704.00
2023-03-07T19:33:51.564Z,700.03
2023-03-07T19:36:21.278Z,705.08
2023-03-07T19:38:49.686Z,712.30
2023-03-07T19:41:19.405Z,704.20
2023-03-07T19:43:46.084Z,704.95
2023-03-07T19:46:14.740Z,703.30
2023-03-07T19:48:43.242Z,707.90
2023-03-07T19:51:18.206Z,703.92
2023-03-07T19:53:45.759Z,706.28
2023-03-07T19:56:19.112Z,705.47
2023-03-07T19:58:45.999Z,710.23
2023-03-07T20:01:15.805Z,698.17
2023-03-07T20:03:42.734Z,694.93
2023-03-07T20:06:14.130Z,699.60
2023-03-07T20:08:40.954Z,709.15
2023-03-07T20:11:12.910Z,705.45
2023-03-07T20:13:41.064Z,702.38
2023-03-07T20:16:10.372Z,700.40
2023-03-07T20:18:38.196Z,699.85
2023-03-07T20:21:10.372Z,698.78
2023-03-07T20:23:37.605Z,698.63
2023-03-07T20:26:12.696Z,694.97
2023-03-07T20:28:39.454Z,702.08
2023-03-07T20:31:09.211Z,700.13
2023-03-07T20:33:36.679Z,701.97
2023-03-07T20:36:09.043Z,705.30
2023-03-07T20:38:37.232Z,696.67
2023-03-07T20:41:11.396Z,696.60
2023-03-07T20:43:38.084Z,701.80
2023-03-07T20:46:15.371Z,704.08
2023-03-07T20:48:43.201Z,695.55
2023-03-07T20:51:18.803Z,702.33
2023-03-07T20:53:53.067Z,709.97
2023-03-07T20:56:21.224Z,725.28
2023-03-07T20:58:48.483Z,716.17
2023-03-07T21:01:17.129Z,709.83
2023-03-07T21:03:44.298Z,708.78
2023-03-07T21:06:11.375Z,703.17
2023-03-07T21:08:38.309Z,706.65
2023-03-07T21:11:12.861Z,700.60
2023-03-07T21:13:41.663Z,704.97
2023-03-07T21:16:20.632Z,699.85
2023-03-07T21:18:48.200Z,701.42
2023-03-07T21:21:17.782Z,692.30
2023-03-07T21:23:45.804Z,698.63
2023-03-07T21:26:23.235Z,695.45
2023-03-07T21:28:51.231Z,696.55
2023-03-07T21:31:20.581Z,693.58
2023-03-07T21:33:51.005Z,684.67
2023-03-07T21:36:17.711Z,692.38
2023-03-07T21:38:45.660Z,688.38
2023-03-07T21:41:13.727Z,686.40
2023-03-07T21:43:40.839Z,684.33
2023-03-07T21:46:09.822Z,692.92
2023-03-07T21:48:36.566Z,697.53
2023-03-07T21:51:04.224Z,692.88
2023-03-07T21:53:31.569Z,696.03
2023-03-07T21:56:00.347Z,698.72
2023-03-07T21:58:28.511Z,693.17
2023-03-07T22:00:56.319Z,698.38
2023-03-07T22:03:27.900Z,690.60
2023-03-07T22:05:56.942Z,684.63
2023-03-07T22:08:24.160Z,688.92
2023-03-07T22:11:03.233Z,683.90
2023-03-07T22:13:32.578Z,677.28
2023-03-07T22:16:00.966Z,677.78
2023-03-07T22:18:28.208Z,687.75
2023-03-07T22:20:55.239Z,683.03
2023-03-07T22:23:23.438Z,682.90
2023-03-07T22:25:50.146Z,683.97
2023-03-07T22:28:19.278Z,677.95
2023-03-07T22:30:47.065Z,676.33
2023-03-07T22:33:13.697Z,678.67
2023-03-07T22:35:40.486Z,679.33
2023-03-07T22:38:07.245Z,678.38
2023-03-07T22:40:33.968Z,668.28
2023-03-07T22:43:00.595Z,672.35
2023-03-07T22:45:27.187Z,672.40
2023-03-07T22:47:53.844Z,675.25
2023-03-07T22:50:20.686Z,674.90
2023-03-07T22:52:48.181Z,673.15
2023-03-07T22:55:14.877Z,672.63
2023-03-07T22:57:41.508Z,674.80
2023-03-07T23:00:08.846Z,672.50
2023-03-07T23:02:35.497Z,673.17
2023-03-07T23:05:02.173Z,670.38
2023-03-07T23:07:28.811Z,671.63
2023-03-07T23:09:55.414Z,680.25
2023-03-07T23:12:22.019Z,673.78
2023-03-07T23:14:48.654Z,668.70
2023-03-07T23:17:15.295Z,671.83
2023-03-07T23:19:41.883Z,673.53
2023-03-07T23:22:08.552Z,672.13
2023-03-07T23:24:36.113Z,673.27
2023-03-07T23:27:02.720Z,677.65
2023-03-07T23:29:29.300Z,678.55
2023-03-07T23:31:55.981Z,678.90
2023-03-07T23:34:22.839Z,671.20
2023-03-07T23:36:49.612Z,685.75
2023-03-07T23:39:17.475Z,679.67
2023-03-07T23:41:44.220Z,669.42
2023-03-07T23:44:11.544Z,674.17
2023-03-07T23:46:38.274Z,673.73
2023-03-07T23:49:05.441Z,673.15
2023-03-07T23:51:32.201Z,672.58
2023-03-07T23:53:58.815Z,681.45
2023-03-07T23:56:25.568Z,683.87
2023-03-07T23:58:52.559Z,679.50
